sensor_id;sensor_type;location;lat;lon;timestamp;pressure;altitude;pressure_sealevel;temperature;humidity
7524;BME280;3803;51.666;7.630;2023-04-27T00:00:12;101414.47;;;5.32;59.05
7524;BME280;3803;51.666;7.630;2023-04-27T00:00:35;101399.31;;;5.23;58.95
7524;BME280;3803;51.666;7.630;2023-04-27T00:00:56;101416.91;;;5.29;59.15
7524;BME280;3803;51.666;7.630;2023-04-27T00:01:16;101395.44;;;5.16;59.24
7524;BME280;3803;51.666;7.630;2023-04-27T00:01:37;101401.63;;;5.18;59.20
7524;BME280;3803;51.666;7.630;2023-04-27T00:01:58;101414.91;;;5.25;59.19
7524;BME280;3803;51.666;7.630;2023-04-27T00:02:18;101405.09;;;5.19;59.16
7524;BME280;3803;51.666;7.630;2023-04-27T00:02:39;101413.13;;;5.24;58.99
7524;BME280;3803;51.666;7.630;2023-04-27T00:03:00;101406.81;;;5.18;59.19
7524;BME280;3803;51.666;7.630;2023-04-27T00:03:24;101401.44;;;5.15;59.22
7524;BME280;3803;51.666;7.630;2023-04-27T00:03:45;101407.50;;;5.16;59.11
7524;BME280;3803;51.666;7.630;2023-04-27T00:04:06;101413.38;;;5.13;59.38
7524;BME280;3803;51.666;7.630;2023-04-27T00:04:27;101425.00;;;5.20;59.54
7524;BME280;3803;51.666;7.630;2023-04-27T00:04:47;101407.22;;;5.11;59.45
7524;BME280;3803;51.666;7.630;2023-04-27T00:05:08;101408.03;;;5.10;59.30
7524;BME280;3803;51.666;7.630;2023-04-27T00:05:36;101410.81;;;5.13;59.59
7524;BME280;3803;51.666;7.630;2023-04-27T00:05:58;101405.53;;;5.12;59.26
7524;BME280;3803;51.666;7.630;2023-04-27T00:06:20;101423.03;;;5.16;59.87
7524;BME280;3803;51.666;7.630;2023-04-27T00:06:41;101411.41;;;5.09;59.60
7524;BME280;3803;51.666;7.630;2023-04-27T00:07:02;101421.31;;;5.16;59.56
7524;BME280;3803;51.666;7.630;2023-04-27T00:07:23;101416.78;;;5.12;59.63
7524;BME280;3803;51.666;7.630;2023-04-27T00:07:43;101403.19;;;5.01;59.61
7524;BME280;3803;51.666;7.630;2023-04-27T00:08:05;101413.09;;;5.09;59.56
7524;BME280;3803;51.666;7.630;2023-04-27T00:08:25;101422.75;;;5.11;59.73
7524;BME280;3803;51.666;7.630;2023-04-27T00:08:46;101414.78;;;5.08;59.88
7524;BME280;3803;51.666;7.630;2023-04-27T00:09:07;101401.41;;;5.00;59.73
7524;BME280;3803;51.666;7.630;2023-04-27T00:09:28;101399.53;;;4.98;60.03
7524;BME280;3803;51.666;7.630;2023-04-27T00:09:49;101411.75;;;5.00;59.92
7524;BME280;3803;51.666;7.630;2023-04-27T00:10:11;101413.44;;;5.00;59.89
7524;BME280;3803;51.666;7.630;2023-04-27T00:10:31;101407.28;;;4.98;59.41
7524;BME280;3803;51.666;7.630;2023-04-27T00:10:52;101409.88;;;4.98;59.71
7524;BME280;3803;51.666;7.630;2023-04-27T00:11:18;101417.81;;;5.01;59.95
7524;BME280;3803;51.666;7.630;2023-04-27T00:11:38;101402.91;;;4.97;60.01
7524;BME280;3803;51.666;7.630;2023-04-27T00:11:59;101415.13;;;4.99;59.80
7524;BME280;3803;51.666;7.630;2023-04-27T00:12:21;101420.38;;;5.01;60.12
7524;BME280;3803;51.666;7.630;2023-04-27T00:12:41;101416.00;;;5.00;60.28
7524;BME280;3803;51.666;7.630;2023-04-27T00:13:02;101426.56;;;5.03;60.12
7524;BME280;3803;51.666;7.630;2023-04-27T00:13:23;101389.22;;;4.84;60.03
7524;BME280;3803;51.666;7.630;2023-04-27T00:13:43;101399.75;;;4.87;59.88
7524;BME280;3803;51.666;7.630;2023-04-27T00:14:04;101397.78;;;4.83;60.33
7524;BME280;3803;51.666;7.630;2023-04-27T00:14:25;101407.81;;;4.92;60.14
7524;BME280;3803;51.666;7.630;2023-04-27T00:14:48;101406.72;;;4.88;60.21
7524;BME280;3803;51.666;7.630;2023-04-27T00:15:09;101413.50;;;4.86;60.32
7524;BME280;3803;51.666;7.630;2023-04-27T00:15:30;101400.47;;;4.85;60.55
7524;BME280;3803;51.666;7.630;2023-04-27T00:15:51;101406.44;;;4.84;60.30
7524;BME280;3803;51.666;7.630;2023-04-27T00:16:12;101411.88;;;4.88;60.52
7524;BME280;3803;51.666;7.630;2023-04-27T00:16:32;101410.81;;;4.85;60.21
7524;BME280;3803;51.666;7.630;2023-04-27T00:16:54;101413.50;;;4.86;60.62
7524;BME280;3803;51.666;7.630;2023-04-27T00:17:15;101414.38;;;4.87;60.75
7524;BME280;3803;51.666;7.630;2023-04-27T00:17:39;101430.97;;;4.90;60.43
7524;BME280;3803;51.666;7.630;2023-04-27T00:18:00;101419.38;;;4.84;60.43
7524;BME280;3803;51.666;7.630;2023-04-27T00:18:21;101392.94;;;4.74;60.49
7524;BME280;3803;51.666;7.630;2023-04-27T00:18:42;101407.84;;;4.78;60.74
7524;BME280;3803;51.666;7.630;2023-04-27T00:19:02;101407.72;;;4.77;60.79
7524;BME280;3803;51.666;7.630;2023-04-27T00:19:23;101410.25;;;4.75;60.61
7524;BME280;3803;51.666;7.630;2023-04-27T00:19:44;101410.41;;;4.78;60.44
7524;BME280;3803;51.666;7.630;2023-04-27T00:20:07;101415.69;;;4.80;60.79
7524;BME280;3803;51.666;7.630;2023-04-27T00:20:31;101416.69;;;4.82;60.78
7524;BME280;3803;51.666;7.630;2023-04-27T00:20:53;101405.94;;;4.76;60.77
7524;BME280;3803;51.666;7.630;2023-04-27T00:21:14;101410.03;;;4.72;60.67
7524;BME280;3803;51.666;7.630;2023-04-27T00:21:34;101414.50;;;4.75;60.69
7524;BME280;3803;51.666;7.630;2023-04-27T00:21:55;101412.56;;;4.71;60.88
7524;BME280;3803;51.666;7.630;2023-04-27T00:22:17;101403.59;;;4.65;60.64
7524;BME280;3803;51.666;7.630;2023-04-27T00:22:38;101425.94;;;4.78;60.85
7524;BME280;3803;51.666;7.630;2023-04-27T00:22:59;101404.41;;;4.64;60.89
7524;BME280;3803;51.666;7.630;2023-04-27T00:23:20;101414.34;;;4.72;60.91
7524;BME280;3803;51.666;7.630;2023-04-27T00:23:40;101413.41;;;4.71;60.82
7524;BME280;3803;51.666;7.630;2023-04-27T00:24:16;101400.72;;;4.61;60.79
7524;BME280;3803;51.666;7.630;2023-04-27T00:24:38;101402.69;;;4.65;60.82
7524;BME280;3803;51.666;7.630;2023-04-27T00:25:00;101414.13;;;4.69;61.19
7524;BME280;3803;51.666;7.630;2023-04-27T00:25:21;101406.88;;;4.63;60.91
7524;BME280;3803;51.666;7.630;2023-04-27T00:25:42;101397.75;;;4.55;60.82
7524;BME280;3803;51.666;7.630;2023-04-27T00:26:02;101401.44;;;4.58;60.88
7524;BME280;3803;51.666;7.630;2023-04-27T00:26:23;101396.94;;;4.56;61.37
7524;BME280;3803;51.666;7.630;2023-04-27T00:26:46;101401.31;;;4.57;61.34
7524;BME280;3803;51.666;7.630;2023-04-27T00:27:07;101418.13;;;4.63;61.19
7524;BME280;3803;51.666;7.630;2023-04-27T00:27:27;101415.53;;;4.63;61.06
7524;BME280;3803;51.666;7.630;2023-04-27T00:27:48;101418.72;;;4.59;61.13
7524;BME280;3803;51.666;7.630;2023-04-27T00:28:09;101407.97;;;4.53;61.62
7524;BME280;3803;51.666;7.630;2023-04-27T00:28:29;101405.22;;;4.36;61.30
7524;BME280;3803;51.666;7.630;2023-04-27T00:28:52;101410.22;;;4.33;62.19
7524;BME280;3803;51.666;7.630;2023-04-27T00:29:13;101406.44;;;4.28;62.09
7524;BME280;3803;51.666;7.630;2023-04-27T00:29:33;101406.25;;;4.25;62.09
7524;BME280;3803;51.666;7.630;2023-04-27T00:29:54;101402.25;;;4.17;62.06
7524;BME280;3803;51.666;7.630;2023-04-27T00:30:15;101415.47;;;4.21;62.17
7524;BME280;3803;51.666;7.630;2023-04-27T00:30:36;101418.84;;;4.20;62.32
7524;BME280;3803;51.666;7.630;2023-04-27T00:30:57;101425.13;;;4.24;62.47
7524;BME280;3803;51.666;7.630;2023-04-27T00:31:20;101430.19;;;4.22;62.55
7524;BME280;3803;51.666;7.630;2023-04-27T00:31:42;101433.69;;;4.23;62.50
7524;BME280;3803;51.666;7.630;2023-04-27T00:32:03;101405.91;;;4.07;62.21
7524;BME280;3803;51.666;7.630;2023-04-27T00:32:24;101413.97;;;4.11;62.72
7524;BME280;3803;51.666;7.630;2023-04-27T00:32:44;101409.31;;;4.06;62.90
7524;BME280;3803;51.666;7.630;2023-04-27T00:33:06;101436.03;;;4.20;62.81
7524;BME280;3803;51.666;7.630;2023-04-27T00:33:29;101431.66;;;4.19;62.58
7524;BME280;3803;51.666;7.630;2023-04-27T00:33:50;101404.81;;;4.03;62.68
7524;BME280;3803;51.666;7.630;2023-04-27T00:34:11;101412.69;;;4.05;62.62
7524;BME280;3803;51.666;7.630;2023-04-27T00:34:31;101411.66;;;4.03;62.93
7524;BME280;3803;51.666;7.630;2023-04-27T00:34:52;101416.66;;;4.00;62.83
7524;BME280;3803;51.666;7.630;2023-04-27T00:35:12;101419.63;;;4.06;62.92
7524;BME280;3803;51.666;7.630;2023-04-27T00:35:35;101411.50;;;4.13;62.81
7524;BME280;3803;51.666;7.630;2023-04-27T00:36:01;101417.56;;;4.27;62.58
7524;BME280;3803;51.666;7.630;2023-04-27T00:36:22;101413.38;;;4.29;62.95
7524;BME280;3803;51.666;7.630;2023-04-27T00:36:43;101414.47;;;4.33;62.83
7524;BME280;3803;51.666;7.630;2023-04-27T00:37:04;101408.44;;;4.32;62.61
7524;BME280;3803;51.666;7.630;2023-04-27T00:37:24;101418.16;;;4.36;62.54
7524;BME280;3803;51.666;7.630;2023-04-27T00:37:45;101410.22;;;4.33;62.49
7524;BME280;3803;51.666;7.630;2023-04-27T00:38:06;101406.84;;;4.34;62.52
7524;BME280;3803;51.666;7.630;2023-04-27T00:38:28;101426.41;;;4.44;62.33
7524;BME280;3803;51.666;7.630;2023-04-27T00:38:49;101415.78;;;4.40;62.26
7524;BME280;3803;51.666;7.630;2023-04-27T00:39:10;101412.19;;;4.37;62.30
7524;BME280;3803;51.666;7.630;2023-04-27T00:39:33;101410.63;;;4.40;62.16
7524;BME280;3803;51.666;7.630;2023-04-27T00:39:53;101408.63;;;4.35;62.33
7524;BME280;3803;51.666;7.630;2023-04-27T00:40:14;101404.13;;;4.33;62.17
7524;BME280;3803;51.666;7.630;2023-04-27T00:40:34;101416.66;;;4.40;62.09
7524;BME280;3803;51.666;7.630;2023-04-27T00:41:06;101415.97;;;4.43;62.17
7524;BME280;3803;51.666;7.630;2023-04-27T00:41:26;101412.41;;;4.41;62.05
7524;BME280;3803;51.666;7.630;2023-04-27T00:41:47;101418.66;;;4.44;62.42
7524;BME280;3803;51.666;7.630;2023-04-27T00:42:08;101402.47;;;4.33;62.69
7524;BME280;3803;51.666;7.630;2023-04-27T00:42:34;101412.41;;;4.41;62.20
7524;BME280;3803;51.666;7.630;2023-04-27T00:43:10;101410.31;;;4.35;62.38
7524;BME280;3803;51.666;7.630;2023-04-27T00:43:31;101415.06;;;4.42;62.60
7524;BME280;3803;51.666;7.630;2023-04-27T00:43:52;101410.22;;;4.33;62.51
7524;BME280;3803;51.666;7.630;2023-04-27T00:44:23;101403.97;;;4.30;62.66
7524;BME280;3803;51.666;7.630;2023-04-27T00:44:45;101416.38;;;4.35;62.41
7524;BME280;3803;51.666;7.630;2023-04-27T00:45:07;101402.88;;;4.26;62.61
7524;BME280;3803;51.666;7.630;2023-04-27T00:45:28;101413.59;;;4.32;62.46
7524;BME280;3803;51.666;7.630;2023-04-27T00:45:48;101406.44;;;4.28;62.41
7524;BME280;3803;51.666;7.630;2023-04-27T00:46:13;101422.34;;;4.34;62.64
7524;BME280;3803;51.666;7.630;2023-04-27T00:46:34;101433.75;;;4.38;62.32
7524;BME280;3803;51.666;7.630;2023-04-27T00:46:57;101415.78;;;4.26;62.36
7524;BME280;3803;51.666;7.630;2023-04-27T00:47:18;101415.78;;;4.26;62.86
7524;BME280;3803;51.666;7.630;2023-04-27T00:47:39;101418.56;;;4.29;62.44
7524;BME280;3803;51.666;7.630;2023-04-27T00:47:59;101414.81;;;4.24;62.59
7524;BME280;3803;51.666;7.630;2023-04-27T00:48:20;101422.84;;;4.29;62.35
7524;BME280;3803;51.666;7.630;2023-04-27T00:48:42;101423.53;;;4.26;62.60
7524;BME280;3803;51.666;7.630;2023-04-27T00:49:03;101412.88;;;4.21;62.51
7524;BME280;3803;51.666;7.630;2023-04-27T00:49:25;101417.13;;;4.21;62.42
7524;BME280;3803;51.666;7.630;2023-04-27T00:49:46;101415.47;;;4.21;62.56
7524;BME280;3803;51.666;7.630;2023-04-27T00:50:07;101414.69;;;4.22;62.44
7524;BME280;3803;51.666;7.630;2023-04-27T00:50:30;101425.22;;;4.26;62.50
7524;BME280;3803;51.666;7.630;2023-04-27T00:50:50;101420.63;;;4.21;62.79
7524;BME280;3803;51.666;7.630;2023-04-27T00:51:12;101412.59;;;4.17;62.67
7524;BME280;3803;51.666;7.630;2023-04-27T00:51:33;101431.47;;;4.29;62.61
7524;BME280;3803;51.666;7.630;2023-04-27T00:51:54;101417.94;;;4.20;63.04
7524;BME280;3803;51.666;7.630;2023-04-27T00:52:17;101424.00;;;4.20;62.77
7524;BME280;3803;51.666;7.630;2023-04-27T00:52:38;101437.25;;;4.25;62.77
7524;BME280;3803;51.666;7.630;2023-04-27T00:52:59;101415.97;;;4.16;62.55
7524;BME280;3803;51.666;7.630;2023-04-27T00:53:21;101421.22;;;4.17;62.97
7524;BME280;3803;51.666;7.630;2023-04-27T00:53:43;101424.69;;;4.18;62.81
7524;BME280;3803;51.666;7.630;2023-04-27T00:54:03;101415.75;;;4.13;62.69
7524;BME280;3803;51.666;7.630;2023-04-27T00:54:25;101415.75;;;4.13;62.78
7524;BME280;3803;51.666;7.630;2023-04-27T00:54:49;101420.13;;;4.14;62.63
7524;BME280;3803;51.666;7.630;2023-04-27T00:55:10;101420.03;;;4.12;62.91
7524;BME280;3803;51.666;7.630;2023-04-27T00:55:31;101422.63;;;4.12;62.84
7524;BME280;3803;51.666;7.630;2023-04-27T00:55:51;101436.94;;;4.20;63.34
7524;BME280;3803;51.666;7.630;2023-04-27T00:56:12;101410.78;;;4.02;62.73
7524;BME280;3803;51.666;7.630;2023-04-27T00:56:32;101426.09;;;4.13;62.99
7524;BME280;3803;51.666;7.630;2023-04-27T00:56:53;101417.94;;;4.06;63.33
7524;BME280;3803;51.666;7.630;2023-04-27T00:57:16;101412.69;;;4.05;63.21
7524;BME280;3803;51.666;7.630;2023-04-27T00:57:37;101426.69;;;4.08;63.08
7524;BME280;3803;51.666;7.630;2023-04-27T00:57:59;101430.38;;;4.12;62.92
7524;BME280;3803;51.666;7.630;2023-04-27T00:58:19;101426.59;;;4.07;63.04
7524;BME280;3803;51.666;7.630;2023-04-27T00:58:40;101423.88;;;4.05;62.79
7524;BME280;3803;51.666;7.630;2023-04-27T00:59:00;101436.41;;;4.13;62.81
7524;BME280;3803;51.666;7.630;2023-04-27T00:59:21;101422.09;;;4.04;63.15
7524;BME280;3803;51.666;7.630;2023-04-27T00:59:42;101429.34;;;4.10;63.15
7524;BME280;3803;51.666;7.630;2023-04-27T01:00:21;101418.34;;;3.99;63.00
7524;BME280;3803;51.666;7.630;2023-04-27T01:00:42;101436.00;;;4.06;63.21
7524;BME280;3803;51.666;7.630;2023-04-27T01:01:03;101437.81;;;4.07;63.12
7524;BME280;3803;51.666;7.630;2023-04-27T01:01:25;101430.06;;;4.07;62.96
7524;BME280;3803;51.666;7.630;2023-04-27T01:01:46;101447.53;;;4.11;63.12
7524;BME280;3803;51.666;7.630;2023-04-27T01:02:10;101430.66;;;4.03;63.11
7524;BME280;3803;51.666;7.630;2023-04-27T01:02:33;101441.16;;;4.06;63.15
7524;BME280;3803;51.666;7.630;2023-04-27T01:02:54;101429.16;;;4.07;63.36
7524;BME280;3803;51.666;7.630;2023-04-27T01:03:15;101418.34;;;3.99;62.88
7524;BME280;3803;51.666;7.630;2023-04-27T01:03:37;101436.00;;;4.06;62.61
7524;BME280;3803;51.666;7.630;2023-04-27T01:03:59;101438.41;;;4.03;63.25
7524;BME280;3803;51.666;7.630;2023-04-27T01:04:20;101429.44;;;3.98;63.25
7524;BME280;3803;51.666;7.630;2023-04-27T01:04:41;101431.56;;;4.04;63.03
7524;BME280;3803;51.666;7.630;2023-04-27T01:05:02;101435.94;;;4.05;63.17
7524;BME280;3803;51.666;7.630;2023-04-27T01:05:24;101425.19;;;3.99;63.09
7524;BME280;3803;51.666;7.630;2023-04-27T01:05:45;101437.72;;;4.06;63.06
7524;BME280;3803;51.666;7.630;2023-04-27T01:06:06;101428.19;;;4.05;63.14
7524;BME280;3803;51.666;7.630;2023-04-27T01:06:27;101435.13;;;4.06;63.22
7524;BME280;3803;51.666;7.630;2023-04-27T01:06:49;101441.16;;;4.06;62.95
7524;BME280;3803;51.666;7.630;2023-04-27T01:07:09;101439.38;;;4.05;63.30
7524;BME280;3803;51.666;7.630;2023-04-27T01:07:30;101443.97;;;4.09;63.04
7524;BME280;3803;51.666;7.630;2023-04-27T01:08:03;101427.09;;;4.01;63.18
7524;BME280;3803;51.666;7.630;2023-04-27T01:08:24;101428.75;;;4.01;63.23
7524;BME280;3803;51.666;7.630;2023-04-27T01:08:45;101441.50;;;4.11;63.06
7524;BME280;3803;51.666;7.630;2023-04-27T01:09:06;101434.03;;;4.02;63.36
7524;BME280;3803;51.666;7.630;2023-04-27T01:09:27;101430.66;;;4.03;63.35
7524;BME280;3803;51.666;7.630;2023-04-27T01:09:48;101426.97;;;4.00;63.41
7524;BME280;3803;51.666;7.630;2023-04-27T01:10:09;101432.31;;;4.03;63.28
7524;BME280;3803;51.666;7.630;2023-04-27T01:10:30;101446.66;;;4.11;63.27
7524;BME280;3803;51.666;7.630;2023-04-27T01:10:50;101433.34;;;4.05;63.62
7524;BME280;3803;51.666;7.630;2023-04-27T01:11:11;101430.84;;;4.06;63.15
7524;BME280;3803;51.666;7.630;2023-04-27T01:11:32;101428.19;;;4.05;63.44
7524;BME280;3803;51.666;7.630;2023-04-27T01:11:53;101434.84;;;4.01;64.02
7524;BME280;3803;51.666;7.630;2023-04-27T01:12:14;101430.66;;;4.03;63.61
7524;BME280;3803;51.666;7.630;2023-04-27T01:12:36;101437.09;;;4.10;63.60
7524;BME280;3803;51.666;7.630;2023-04-27T01:12:58;101439.97;;;4.15;63.62
7524;BME280;3803;51.666;7.630;2023-04-27T01:13:18;101434.81;;;4.15;63.70
7524;BME280;3803;51.666;7.630;2023-04-27T01:13:39;101441.00;;;4.17;63.92
7524;BME280;3803;51.666;7.630;2023-04-27T01:14:05;101430.56;;;4.15;63.47
7524;BME280;3803;51.666;7.630;2023-04-27T01:14:25;101435.16;;;4.19;63.51
7524;BME280;3803;51.666;7.630;2023-04-27T01:14:46;101423.72;;;4.16;63.52
7524;BME280;3803;51.666;7.630;2023-04-27T01:15:07;101440.81;;;4.27;63.55
7524;BME280;3803;51.666;7.630;2023-04-27T01:15:28;101440.81;;;4.27;63.76
7524;BME280;3803;51.666;7.630;2023-04-27T01:15:49;101448.19;;;4.34;63.55
7524;BME280;3803;51.666;7.630;2023-04-27T01:16:09;101445.41;;;4.31;63.44
7524;BME280;3803;51.666;7.630;2023-04-27T01:16:33;101450.94;;;4.37;63.86
7524;BME280;3803;51.666;7.630;2023-04-27T01:16:55;101450.88;;;4.36;63.74
7524;BME280;3803;51.666;7.630;2023-04-27T01:17:16;101435.84;;;4.30;63.96
7524;BME280;3803;51.666;7.630;2023-04-27T01:17:37;101450.47;;;4.43;63.58
7524;BME280;3803;51.666;7.630;2023-04-27T01:17:59;101437.84;;;4.34;63.81
7524;BME280;3803;51.666;7.630;2023-04-27T01:18:21;101439.81;;;4.38;63.70
7524;BME280;3803;51.666;7.630;2023-04-27T01:18:43;101445.19;;;4.42;63.55
7524;BME280;3803;51.666;7.630;2023-04-27T01:19:06;101436.47;;;4.40;63.95
7524;BME280;3803;51.666;7.630;2023-04-27T01:19:27;101431.47;;;4.43;63.97
7524;BME280;3803;51.666;7.630;2023-04-27T01:19:48;101445.66;;;4.49;63.71
7524;BME280;3803;51.666;7.630;2023-04-27T01:20:10;101427.28;;;4.45;63.65
7524;BME280;3803;51.666;7.630;2023-04-27T01:20:31;101445.78;;;4.51;63.95
7524;BME280;3803;51.666;7.630;2023-04-27T01:20:52;101445.19;;;4.55;63.79
7524;BME280;3803;51.666;7.630;2023-04-27T01:21:13;101435.44;;;4.51;64.09
7524;BME280;3803;51.666;7.630;2023-04-27T01:21:33;101442.78;;;4.58;63.55
7524;BME280;3803;51.666;7.630;2023-04-27T01:21:54;101436.81;;;4.59;63.59
7524;BME280;3803;51.666;7.630;2023-04-27T01:22:14;101443.19;;;4.64;63.87
7524;BME280;3803;51.666;7.630;2023-04-27T01:22:36;101440.66;;;4.66;63.95
7524;BME280;3803;51.666;7.630;2023-04-27T01:22:56;101435.50;;;4.66;63.82
7524;BME280;3803;51.666;7.630;2023-04-27T01:23:17;101433.03;;;4.68;63.52
7524;BME280;3803;51.666;7.630;2023-04-27T01:23:38;101436.81;;;4.73;63.69
7524;BME280;3803;51.666;7.630;2023-04-27T01:23:59;101449.38;;;4.82;63.94
7524;BME280;3803;51.666;7.630;2023-04-27T01:24:19;101443.13;;;4.78;63.47
7524;BME280;3803;51.666;7.630;2023-04-27T01:24:40;101440.53;;;4.78;63.80
7524;BME280;3803;51.666;7.630;2023-04-27T01:25:01;101439.84;;;4.81;63.50
7524;BME280;3803;51.666;7.630;2023-04-27T01:25:21;101447.88;;;4.85;63.52
7524;BME280;3803;51.666;7.630;2023-04-27T01:25:48;101449.88;;;4.89;63.68
7524;BME280;3803;51.666;7.630;2023-04-27T01:26:08;101444.72;;;4.89;63.29
7524;BME280;3803;51.666;7.630;2023-04-27T01:26:31;101433.38;;;4.87;63.23
7524;BME280;3803;51.666;7.630;2023-04-27T01:26:52;101446.50;;;4.90;63.43
7524;BME280;3803;51.666;7.630;2023-04-27T01:27:13;101440.41;;;4.90;63.19
7524;BME280;3803;51.666;7.630;2023-04-27T01:27:34;101443.09;;;4.91;63.26
7524;BME280;3803;51.666;7.630;2023-04-27T01:27:55;101439.72;;;4.92;63.23
7524;BME280;3803;51.666;7.630;2023-04-27T01:28:15;101438.16;;;4.95;63.36
7524;BME280;3803;51.666;7.630;2023-04-27T01:28:36;101437.25;;;4.94;63.21
7524;BME280;3803;51.666;7.630;2023-04-27T01:28:56;101451.16;;;4.96;62.85
7524;BME280;3803;51.666;7.630;2023-04-27T01:29:17;101457.78;;;5.06;62.70
7524;BME280;3803;51.666;7.630;2023-04-27T01:29:38;101449.94;;;5.04;63.28
7524;BME280;3803;51.666;7.630;2023-04-27T01:29:59;101442.97;;;5.03;63.30
7524;BME280;3803;51.666;7.630;2023-04-27T01:30:20;101465.13;;;5.13;62.81
7524;BME280;3803;51.666;7.630;2023-04-27T01:30:45;101465.31;;;5.16;62.95
7524;BME280;3803;51.666;7.630;2023-04-27T01:31:06;101458.34;;;5.15;63.04
7524;BME280;3803;51.666;7.630;2023-04-27T01:31:29;101449.72;;;5.15;62.85
7524;BME280;3803;51.666;7.630;2023-04-27T01:31:50;101451.56;;;5.17;62.96
7524;BME280;3803;51.666;7.630;2023-04-27T01:32:11;101458.75;;;5.22;63.08
7524;BME280;3803;51.666;7.630;2023-04-27T01:32:32;101453.38;;;5.18;62.78
7524;BME280;3803;51.666;7.630;2023-04-27T01:32:53;101448.22;;;5.18;62.71
7524;BME280;3803;51.666;7.630;2023-04-27T01:33:13;101458.09;;;5.26;62.75
7524;BME280;3803;51.666;7.630;2023-04-27T01:33:34;101453.13;;;5.29;62.39
7524;BME280;3803;51.666;7.630;2023-04-27T01:33:54;101463.75;;;5.33;62.66
7524;BME280;3803;51.666;7.630;2023-04-27T01:34:15;101455.09;;;5.33;62.72
7524;BME280;3803;51.666;7.630;2023-04-27T01:34:36;101454.31;;;5.34;62.74
7524;BME280;3803;51.666;7.630;2023-04-27T01:34:56;101439.28;;;5.28;62.72
7524;BME280;3803;51.666;7.630;2023-04-27T01:35:19;101441.16;;;5.31;62.82
7524;BME280;3803;51.666;7.630;2023-04-27T01:35:40;101458.06;;;5.39;62.56
7524;BME280;3803;51.666;7.630;2023-04-27T01:36:00;101463.59;;;5.45;62.22
7524;BME280;3803;51.666;7.630;2023-04-27T01:36:22;101460.03;;;5.43;62.46
7524;BME280;3803;51.666;7.630;2023-04-27T01:36:51;101448.50;;;5.38;62.37
7524;BME280;3803;51.666;7.630;2023-04-27T01:37:12;101442.63;;;5.41;62.30
7524;BME280;3803;51.666;7.630;2023-04-27T01:37:33;101445.22;;;5.41;62.34
7524;BME280;3803;51.666;7.630;2023-04-27T01:37:55;101454.88;;;5.43;62.42
7524;BME280;3803;51.666;7.630;2023-04-27T01:38:16;101455.03;;;5.46;62.34
7524;BME280;3803;51.666;7.630;2023-04-27T01:38:37;101448.69;;;5.41;62.36
7524;BME280;3803;51.666;7.630;2023-04-27T01:38:58;101462.28;;;5.52;62.15
7524;BME280;3803;51.666;7.630;2023-04-27T01:39:19;101444.69;;;5.46;62.23
7524;BME280;3803;51.666;7.630;2023-04-27T01:39:40;101454.34;;;5.49;62.23
7524;BME280;3803;51.666;7.630;2023-04-27T01:40:02;101457.03;;;5.51;62.46
7524;BME280;3803;51.666;7.630;2023-04-27T01:40:25;101469.72;;;5.61;62.33
7524;BME280;3803;51.666;7.630;2023-04-27T01:40:47;101464.16;;;5.55;61.92
7524;BME280;3803;51.666;7.630;2023-04-27T01:41:07;101459.69;;;5.52;62.13
7524;BME280;3803;51.666;7.630;2023-04-27T01:41:28;101456.28;;;5.53;62.13
7524;BME280;3803;51.666;7.630;2023-04-27T01:41:49;101449.25;;;5.51;62.27
7524;BME280;3803;51.666;7.630;2023-04-27T01:42:10;101460.69;;;5.54;62.25
7524;BME280;3803;51.666;7.630;2023-04-27T01:42:33;101449.44;;;5.54;62.39
7524;BME280;3803;51.666;7.630;2023-04-27T01:42:54;101474.19;;;5.64;62.10
7524;BME280;3803;51.666;7.630;2023-04-27T01:43:14;101438.81;;;5.49;62.12
7524;BME280;3803;51.666;7.630;2023-04-27T01:43:35;101458.53;;;5.62;61.74
7524;BME280;3803;51.666;7.630;2023-04-27T01:43:58;101470.09;;;5.67;61.99
7524;BME280;3803;51.666;7.630;2023-04-27T01:44:19;101453.09;;;5.57;61.60
7524;BME280;3803;51.666;7.630;2023-04-27T01:44:42;101463.13;;;5.66;62.01
7524;BME280;3803;51.666;7.630;2023-04-27T01:45:03;101454.16;;;5.61;61.73
7524;BME280;3803;51.666;7.630;2023-04-27T01:45:25;101468.47;;;5.69;61.76
7524;BME280;3803;51.666;7.630;2023-04-27T01:45:46;101456.06;;;5.64;61.84
7524;BME280;3803;51.666;7.630;2023-04-27T01:46:09;101447.22;;;5.60;61.18
7524;BME280;3803;51.666;7.630;2023-04-27T01:46:30;101452.94;;;5.69;61.60
7524;BME280;3803;51.666;7.630;2023-04-27T01:46:51;101457.03;;;5.66;61.59
7524;BME280;3803;51.666;7.630;2023-04-27T01:47:14;101454.53;;;5.67;61.53
7524;BME280;3803;51.666;7.630;2023-04-27T01:47:35;101447.56;;;5.66;61.32
7524;BME280;3803;51.666;7.630;2023-04-27T01:47:56;101456.50;;;5.71;61.37
7524;BME280;3803;51.666;7.630;2023-04-27T01:48:17;101459.72;;;5.67;61.60
7524;BME280;3803;51.666;7.630;2023-04-27T01:48:39;101442.19;;;5.63;61.33
7524;BME280;3803;51.666;7.630;2023-04-27T01:48:59;101468.63;;;5.72;61.40
7524;BME280;3803;51.666;7.630;2023-04-27T01:49:22;101453.72;;;5.68;61.48
7524;BME280;3803;51.666;7.630;2023-04-27T01:50:48;101455.78;;;5.74;61.84
7524;BME280;3803;51.666;7.630;2023-04-27T01:51:09;101465.59;;;5.80;61.58
7524;BME280;3803;51.666;7.630;2023-04-27T01:51:29;101472.56;;;5.81;61.29
7524;BME280;3803;51.666;7.630;2023-04-27T01:51:50;101450.34;;;5.69;61.48
7524;BME280;3803;51.666;7.630;2023-04-27T01:52:11;101456.50;;;5.71;61.37
7524;BME280;3803;51.666;7.630;2023-04-27T01:52:31;101458.28;;;5.72;61.37
7524;BME280;3803;51.666;7.630;2023-04-27T01:52:52;101463.66;;;5.75;61.37
7524;BME280;3803;51.666;7.630;2023-04-27T01:53:12;101459.88;;;5.70;61.53
7524;BME280;3803;51.666;7.630;2023-04-27T01:53:33;101459.00;;;5.70;61.47
7524;BME280;3803;51.666;7.630;2023-04-27T01:53:54;101460.69;;;5.69;61.22
7524;BME280;3803;51.666;7.630;2023-04-27T01:54:15;101443.97;;;5.64;61.58
7524;BME280;3803;51.666;7.630;2023-04-27T01:54:37;101461.59;;;5.70;61.37
7524;BME280;3803;51.666;7.630;2023-04-27T01:54:57;101456.50;;;5.71;61.49
7524;BME280;3803;51.666;7.630;2023-04-27T01:55:18;101448.19;;;5.62;61.46
7524;BME280;3803;51.666;7.630;2023-04-27T01:55:39;101449.97;;;5.63;61.53
7524;BME280;3803;51.666;7.630;2023-04-27T01:55:59;101458.91;;;5.68;61.36
7524;BME280;3803;51.666;7.630;2023-04-27T01:56:20;101472.03;;;5.71;61.56
7524;BME280;3803;51.666;7.630;2023-04-27T01:56:41;101462.09;;;5.64;61.32
7524;BME280;3803;51.666;7.630;2023-04-27T01:57:02;101455.03;;;5.61;61.66
7524;BME280;3803;51.666;7.630;2023-04-27T01:57:23;101458.66;;;5.64;61.18
7524;BME280;3803;51.666;7.630;2023-04-27T01:57:44;101466.69;;;5.68;61.59
7524;BME280;3803;51.666;7.630;2023-04-27T01:58:05;101460.22;;;5.61;61.46
7524;BME280;3803;51.666;7.630;2023-04-27T01:58:26;101459.34;;;5.61;61.60